Time;durP1;ratioP1;P1;durP2;ratioP2;P2;SDS_P1;SDS_P2;PMS_P1;PMS_P2;Temp;Humidity;BMP_temperature;BMP_pressure;BME280_temperature;BME280_humidity;BME280_pressure;Samples;Min_cycle;Max_cycle;Signal;HPM_P1;HPM_P2
2021/07/23 00:00:25;;;;;;;15.05;11.35;;;;;;;16.53;100.00;95954.91;1026967;28;20033;-70
2021/07/23 00:00:56;;;;;;;20.52;10.80;;;;;;;16.60;100.00;95965.91;1023530;28;20126;-70
2021/07/23 00:01:26;;;;;;;17.75;11.50;;;;;;;16.59;100.00;95960.91;1023052;28;20031;-70
2021/07/23 00:01:58;;;;;;;19.35;11.48;;;;;;;16.57;100.00;95960.44;1026250;28;20040;-70
2021/07/23 00:02:28;;;;;;;24.35;11.45;;;;;;;16.57;100.00;95963.09;1027202;28;20114;-71
2021/07/23 00:02:59;;;;;;;19.88;12.35;;;;;;;16.52;100.00;95966.59;1030491;28;20038;-71
2021/07/23 00:03:29;;;;;;;15.20;11.27;;;;;;;16.50;100.00;95963.47;1026398;28;20035;-71
2021/07/23 00:04:00;;;;;;;18.45;11.57;;;;;;;16.48;100.00;95965.63;1030891;28;20089;-72
2021/07/23 00:04:32;;;;;;;18.08;11.25;;;;;;;16.45;100.00;95963.56;1030309;28;20034;-72
2021/07/23 00:05:03;;;;;;;19.27;11.80;;;;;;;16.44;100.00;95960.13;1026767;28;20057;-72
2021/07/23 00:05:33;;;;;;;19.17;12.23;;;;;;;16.30;100.00;95950.59;1027106;28;20062;-72
2021/07/23 00:06:04;;;;;;;16.08;11.50;;;;;;;16.39;100.00;95954.13;1022405;29;20106;-72
2021/07/23 00:06:34;;;;;;;18.20;12.05;;;;;;;16.36;100.00;95960.00;1019245;29;20024;-72
2021/07/23 00:07:04;;;;;;;20.05;12.55;;;;;;;16.31;100.00;95952.19;1018909;29;20031;-72
2021/07/23 00:07:35;;;;;;;18.42;12.73;;;;;;;16.33;100.00;95956.09;1014755;29;20032;-72
2021/07/23 00:08:06;;;;;;;18.95;12.40;;;;;;;16.25;100.00;95949.59;1022548;29;20027;-72
2021/07/23 00:08:36;;;;;;;17.17;12.40;;;;;;;16.34;100.00;95956.88;1022611;29;20032;-72
2021/07/23 00:09:07;;;;;;;19.58;12.25;;;;;;;16.32;100.00;95959.03;1018993;28;20019;-72
2021/07/23 00:09:37;;;;;;;21.67;12.15;;;;;;;16.30;100.00;95956.69;1026450;28;20039;-73
2021/07/23 00:10:08;;;;;;;17.25;11.73;;;;;;;16.30;100.00;95961.19;1022730;28;20039;-72
2021/07/23 00:10:38;;;;;;;18.60;11.00;;;;;;;16.29;100.00;95960.41;1023152;28;20053;-72
2021/07/23 00:11:09;;;;;;;19.65;12.77;;;;;;;16.27;100.00;95958.06;1027659;28;20037;-72
2021/07/23 00:11:39;;;;;;;17.65;12.50;;;;;;;16.25;100.00;95954.91;1030344;28;20590;-70
2021/07/23 00:12:10;;;;;;;22.35;12.50;;;;;;;16.23;100.00;95951.78;1034307;28;20455;-72
2021/07/23 00:12:43;;;;;;;18.50;12.27;;;;;;;16.23;100.00;95956.28;1026802;28;20086;-73
2021/07/23 00:13:14;;;;;;;17.98;12.13;;;;;;;16.20;100.00;95955.00;1018681;29;20502;-73
2021/07/23 00:13:44;;;;;;;19.15;12.20;;;;;;;16.18;100.00;95954.50;1018832;29;20024;-72
2021/07/23 00:14:15;;;;;;;20.45;13.50;;;;;;;16.19;100.00;95957.94;1015067;29;20028;-72
2021/07/23 00:14:45;;;;;;;18.30;12.55;;;;;;;16.16;100.00;95956.69;1018942;28;20024;-72
2021/07/23 00:15:15;;;;;;;20.55;12.10;;;;;;;16.14;100.00;95952.75;1026766;28;20030;-72
2021/07/23 00:15:46;;;;;;;17.60;12.70;;;;;;;16.14;100.00;95956.19;1030484;28;20030;-71
2021/07/23 00:16:16;;;;;;;19.25;13.38;;;;;;;16.09;100.00;95948.31;1034628;28;20635;-72
2021/07/23 00:16:47;;;;;;;19.80;11.77;;;;;;;16.13;100.00;95951.97;1030725;28;20030;-73
2021/07/23 00:17:17;;;;;;;18.67;11.77;;;;;;;16.13;100.00;95956.47;1026219;28;20027;-72
2021/07/23 00:17:48;;;;;;;17.60;12.32;;;;;;;16.12;100.00;95949.59;1022865;29;20035;-72
2021/07/23 00:18:18;;;;;;;23.92;11.95;;;;;;;16.13;100.00;95951.16;1022547;29;20410;-72
2021/07/23 00:18:48;;;;;;;21.38;12.73;;;;;;;16.08;100.00;95940.69;1022574;29;20038;-73
2021/07/23 00:19:19;;;;;;;19.98;12.98;;;;;;;16.13;100.00;95945.88;1018304;29;20031;-72
2021/07/23 00:19:49;;;;;;;19.98;12.75;;;;;;;16.17;100.00;95945.00;1018422;29;20098;-73
2021/07/23 00:20:20;;;;;;;18.58;12.25;;;;;;;16.15;100.00;95947.16;1022298;28;20023;-72
2021/07/23 00:20:50;;;;;;;21.25;12.00;;;;;;;16.13;100.00;95941.38;1018749;29;20027;-72
2021/07/23 00:21:21;;;;;;;17.90;12.05;;;;;;;16.12;100.00;95942.44;1022791;28;20544;-72
2021/07/23 00:21:51;;;;;;;22.15;12.30;;;;;;;16.13;100.00;95945.88;1020578;29;20038;-73
2021/07/23 00:22:21;;;;;;;22.38;12.20;;;;;;;16.13;100.00;95948.50;1018514;28;20024;-72
2021/07/23 00:22:52;;;;;;;22.38;12.52;;;;;;;16.13;100.00;95946.69;1027288;28;20027;-73
2021/07/23 00:23:22;;;;;;;17.35;11.65;;;;;;;16.13;100.00;95944.03;1026952;28;20022;-72
2021/07/23 00:23:53;;;;;;;16.27;12.38;;;;;;;16.13;100.00;95945.88;1021896;28;20027;-72
2021/07/23 00:24:23;;;;;;;21.60;12.13;;;;;;;16.14;100.00;95944.81;1022836;28;20056;-72
2021/07/23 00:24:54;;;;;;;16.77;12.10;;;;;;;16.13;100.00;95944.03;1026866;28;20036;-72
2021/07/23 00:25:24;;;;;;;20.85;12.38;;;;;;;16.13;100.00;95941.38;1026485;28;20030;-72
2021/07/23 00:25:54;;;;;;;21.52;12.23;;;;;;;16.12;100.00;95947.72;1026790;28;20031;-71
2021/07/23 00:26:25;;;;;;;18.23;12.32;;;;;;;16.10;100.00;95943.81;1026538;28;20031;-73
2021/07/23 00:26:55;;;;;;;21.80;12.60;;;;;;;16.09;100.00;95948.31;1022455;29;20573;-75
2021/07/23 00:27:26;;;;;;;20.70;13.07;;;;;;;16.07;100.00;95936.47;1023381;28;20386;-72
2021/07/23 00:27:56;;;;;;;20.05;12.88;;;;;;;16.10;100.00;95952.56;1024169;29;20031;-74
2021/07/23 00:28:27;;;;;;;19.77;12.95;;;;;;;16.11;100.00;95948.03;1027567;28;20026;-74
2021/07/23 00:28:57;;;;;;;19.42;11.65;;;;;;;16.10;100.00;95941.97;1023611;28;20717;-72
2021/07/23 00:29:28;;;;;;;18.48;11.88;;;;;;;16.11;100.00;95946.16;1023601;29;20026;-73
2021/07/23 00:29:58;;;;;;;24.70;12.07;;;;;;;16.12;100.00;95939.78;1019480;29;20020;-73
2021/07/23 00:30:28;;;;;;;20.58;12.13;;;;;;;16.14;100.00;95942.16;1021985;28;20040;-73
2021/07/23 00:30:59;;;;;;;22.17;12.75;;;;;;;16.12;100.00;95945.09;1031581;28;20031;-73
2021/07/23 00:31:29;;;;;;;19.48;12.27;;;;;;;16.10;100.00;95944.59;1031402;28;20045;-72
2021/07/23 00:32:00;;;;;;;20.33;12.77;;;;;;;16.09;100.00;95934.28;1025544;29;20057;-73
2021/07/23 00:32:30;;;;;;;24.23;12.65;;;;;;;16.10;100.00;95947.25;1026945;28;20055;-72
2021/07/23 00:33:01;;;;;;;18.13;11.93;;;;;;;16.10;100.00;95943.81;1027635;28;20038;-72
2021/07/23 00:33:32;;;;;;;19.52;12.73;;;;;;;16.09;100.00;95943.03;1028302;28;20023;-73
2021/07/23 00:34:02;;;;;;;17.85;12.52;;;;;;;16.10;100.00;95941.97;1031503;28;20034;-72
2021/07/23 00:34:33;;;;;;;18.15;12.25;;;;;;;16.13;100.00;95938.72;1027510;28;20022;-72
2021/07/23 00:35:03;;;;;;;19.35;11.65;;;;;;;16.12;100.00;95931.84;1023186;28;20026;-72
2021/07/23 00:35:34;;;;;;;17.67;12.32;;;;;;;16.19;100.00;95937.53;1018875;29;20055;-72
2021/07/23 00:36:04;;;;;;;20.42;13.18;;;;;;;16.17;100.00;95928.34;1014858;29;20496;-73
2021/07/23 00:36:35;;;;;;;19.83;12.55;;;;;;;16.22;100.00;95931.66;1018832;29;20030;-72
2021/07/23 00:37:05;;;;;;;21.77;12.55;;;;;;;16.23;100.00;95937.72;1019332;28;20079;-72
2021/07/23 00:37:36;;;;;;;18.10;12.48;;;;;;;16.22;100.00;95934.31;1026822;28;20034;-73
2021/07/23 00:38:06;;;;;;;17.63;12.43;;;;;;;16.24;100.00;95939.31;1027152;28;20063;-73
2021/07/23 00:38:36;;;;;;;22.10;12.77;;;;;;;16.22;100.00;95925.59;1026439;28;20034;-72
2021/07/23 00:39:07;;;;;;;19.35;12.93;;;;;;;16.17;100.00;95926.47;1018839;28;20563;-72
2021/07/23 00:39:37;;;;;;;18.88;12.50;;;;;;;16.19;100.00;95921.66;1016938;29;20502;-72
2021/07/23 00:40:08;;;;;;;21.10;12.38;;;;;;;16.25;100.00;95917.06;1018421;29;20502;-72
2021/07/23 00:40:39;;;;;;;20.95;11.55;;;;;;;16.20;100.00;95915.31;1024913;28;20018;-72
2021/07/23 00:41:09;;;;;;;24.10;12.35;;;;;;;16.24;100.00;95915.50;1026361;28;20851;-72
2021/07/23 00:41:39;;;;;;;16.75;11.60;;;;;;;16.22;100.00;95907.03;1026441;28;20034;-70
2021/07/23 00:42:10;;;;;;;17.50;12.00;;;;;;;16.30;100.00;95919.63;1030195;28;20648;-72
2021/07/23 00:42:41;;;;;;;16.40;12.00;;;;;;;16.29;100.00;95918.03;1026526;28;20574;-72
2021/07/23 00:43:11;;;;;;;18.27;12.48;;;;;;;16.29;100.00;95923.31;1022563;29;20027;-73
2021/07/23 00:43:42;;;;;;;17.30;12.07;;;;;;;16.26;100.00;95916.78;1022817;28;20486;-71
2021/07/23 00:44:12;;;;;;;18.08;12.20;;;;;;;16.24;100.00;95916.28;1026647;28;20508;-71
2021/07/23 00:44:43;;;;;;;15.90;12.13;;;;;;;16.23;100.00;95924.50;1022554;28;20555;-72
2021/07/23 00:45:13;;;;;;;17.73;12.15;;;;;;;16.21;100.00;95916.84;1022554;29;20050;-72
2021/07/23 00:45:44;;;;;;;18.13;12.02;;;;;;;16.16;100.00;95913.50;1022255;29;20474;-72
2021/07/23 00:46:14;;;;;;;16.70;11.75;;;;;;;16.14;100.00;95924.41;1022949;28;20124;-72
2021/07/23 00:46:44;;;;;;;17.98;12.20;;;;;;;16.15;100.00;95923.31;1022932;29;20037;-73
2021/07/23 00:47:15;;;;;;;19.02;12.57;;;;;;;16.14;100.00;95916.47;1018084;29;20075;-72
2021/07/23 00:47:48;;;;;;;21.38;12.73;;;;;;;16.14;100.00;95923.63;1018940;29;20055;-72
2021/07/23 00:48:18;;;;;;;16.33;12.00;;;;;;;16.06;100.00;95914.47;1014909;29;20103;-72
2021/07/23 00:48:49;;;;;;;18.50;12.80;;;;;;;16.03;100.00;95913.22;1018475;29;20031;-72
2021/07/23 00:49:19;;;;;;;16.67;12.38;;;;;;;16.07;100.00;95920.59;1018665;29;20031;-71
2021/07/23 00:49:51;;;;;;;20.50;12.88;;;;;;;16.07;100.00;95920.59;1014800;29;20032;-72
2021/07/23 00:50:25;;;;;;;18.38;12.32;;;;;;;15.99;100.00;95908.78;1011338;29;20064;-72
2021/07/23 00:50:55;;;;;;;20.38;13.30;;;;;;;16.06;100.00;95921.66;1019271;29;20031;-72
2021/07/23 00:51:26;;;;;;;18.75;12.48;;;;;;;16.08;100.00;95925.56;1026497;28;20031;-73
2021/07/23 00:51:56;;;;;;;19.38;12.55;;;;;;;16.03;100.00;95910.56;1026158;28;20039;-73
2021/07/23 00:52:27;;;;;;;20.40;12.13;;;;;;;16.09;100.00;95919.19;1019414;29;20050;-72
2021/07/23 00:52:57;;;;;;;19.02;12.75;;;;;;;16.17;100.00;95918.53;1010922;29;20044;-72
2021/07/23 00:53:28;;;;;;;17.55;11.98;;;;;;;16.14;100.00;95911.16;1016313;29;20104;-72
2021/07/23 00:53:59;;;;;;;22.67;12.70;;;;;;;16.16;100.00;95910.88;1017337;29;21836;-72
2021/07/23 00:54:29;;;;;;;17.17;12.32;;;;;;;16.19;100.00;95908.41;1026885;28;20029;-72
2021/07/23 00:55:00;;;;;;;17.05;12.00;;;;;;;16.27;100.00;95918.34;1029121;28;20046;-72
2021/07/23 00:55:30;;;;;;;18.83;12.77;;;;;;;16.27;100.00;95918.34;1030068;28;20041;-72
2021/07/23 00:56:01;;;;;;;18.67;13.20;;;;;;;16.21;100.00;95905.50;1020998;29;21523;-72
2021/07/23 00:56:31;;;;;;;19.65;12.18;;;;;;;16.24;100.00;95918.91;1018674;29;20513;-73
2021/07/23 00:57:02;;;;;;;20.02;13.20;;;;;;;16.18;100.00;95908.72;1030624;28;20452;-73
2021/07/23 00:57:32;;;;;;;20.25;12.15;;;;;;;16.24;100.00;95913.63;1030368;28;20034;-73
2021/07/23 00:58:04;;;;;;;22.20;13.32;;;;;;;16.23;100.00;95917.38;1022308;28;20035;-72
2021/07/23 00:58:34;;;;;;;18.52;12.95;;;;;;;16.22;100.00;95918.41;1014693;29;20064;-73
2021/07/23 00:59:05;;;;;;;20.63;12.07;;;;;;;16.26;100.00;95913.31;1022683;28;20035;-72
2021/07/23 00:59:35;;;;;;;17.02;12.50;;;;;;;16.26;100.00;95913.31;1021777;28;20031;-72
2021/07/23 01:00:06;;;;;;;20.25;11.73;;;;;;;16.28;100.00;95919.13;1018680;29;20059;-72
2021/07/23 01:00:39;;;;;;;16.48;11.50;;;;;;;16.32;100.00;95916.66;1022111;29;20110;-73
2021/07/23 01:01:10;;;;;;;19.40;12.88;;;;;;;16.37;100.00;95919.22;1018085;29;20071;-71
2021/07/23 01:01:43;;;;;;;22.90;12.70;;;;;;;16.32;100.00;95904.19;1022430;28;20043;-72
2021/07/23 01:02:14;;;;;;;18.25;11.60;;;;;;;16.38;100.00;95915.50;1018984;29;20522;-72
2021/07/23 01:02:44;;;;;;;18.25;11.98;;;;;;;16.38;100.00;95910.19;1018053;29;20039;-72
2021/07/23 01:03:15;;;;;;;20.13;12.07;;;;;;;16.42;100.00;95916.47;1017877;29;20020;-72
2021/07/23 01:03:45;;;;;;;25.67;11.95;;;;;;;16.39;100.00;95912.53;1018119;29;20072;-75
2021/07/23 01:04:15;;;;;;;19.17;11.98;;;;;;;16.47;100.00;95914.50;1014243;29;20032;-73
2021/07/23 01:04:46;;;;;;;26.33;13.10;;;;;;;16.51;100.00;95920.00;1016445;29;20036;-72
2021/07/23 01:05:16;;;;;;;25.35;13.52;;;;;;;16.53;100.00;95909.88;1014533;29;20032;-72
2021/07/23 01:05:50;;;;;;;26.27;13.25;;;;;;;16.53;100.00;95917.81;1014823;29;20040;-72
2021/07/23 01:06:20;;;;;;;18.00;11.20;;;;;;;16.57;100.00;95913.53;1021788;28;20082;-73
2021/07/23 01:06:51;;;;;;;17.35;12.55;;;;;;;16.51;100.00;95893.50;1019241;29;20616;-72
2021/07/23 01:07:21;;;;;;;18.88;11.85;;;;;;;16.60;100.00;95915.59;1015805;29;20028;-72
2021/07/23 01:07:52;;;;;;;22.40;12.80;;;;;;;16.64;100.00;95915.78;1018988;29;20024;-73
2021/07/23 01:08:23;;;;;;;23.85;12.70;;;;;;;16.63;100.00;95908.88;1018945;29;20032;-73
2021/07/23 01:08:54;;;;;;;19.85;11.70;;;;;;;16.66;100.00;95911.72;1015585;29;20126;-73
2021/07/23 01:09:25;;;;;;;18.38;12.55;;;;;;;16.68;100.00;95914.88;1023340;29;20523;-72
2021/07/23 01:09:59;;;;;;;22.17;11.05;;;;;;;16.71;100.00;95908.22;1019428;29;20096;-72
2021/07/23 01:10:30;;;;;;;19.38;12.10;;;;;;;16.70;100.00;95901.34;1020632;28;20032;-71
2021/07/23 01:11:00;;;;;;;20.88;11.70;;;;;;;16.73;100.00;95911.31;1027069;28;20037;-72
2021/07/23 01:11:31;;;;;;;15.85;11.60;;;;;;;16.73;100.00;95909.47;1025082;28;20027;-72
2021/07/23 01:12:01;;;;;;;20.90;11.88;;;;;;;16.75;100.00;95903.91;1018667;29;20054;-71
2021/07/23 01:12:33;;;;;;;27.17;12.25;;;;;;;16.72;100.00;95899.94;1015428;29;20026;-73
2021/07/23 01:13:04;;;;;;;19.55;12.18;;;;;;;16.78;100.00;95908.63;1014992;29;20513;-72
2021/07/23 01:13:34;;;;;;;22.52;12.35;;;;;;;16.75;100.00;95903.13;1019960;29;20028;-72
2021/07/23 01:14:05;;;;;;;17.95;11.80;;;;;;;16.80;100.00;95906.47;1027337;28;20477;-72
2021/07/23 01:14:36;;;;;;;20.30;11.20;;;;;;;16.73;100.00;95898.88;1020834;29;20126;-72
2021/07/23 01:15:06;;;;;;;20.42;12.45;;;;;;;16.81;100.00;95907.25;1015718;29;20056;-72
2021/07/23 01:15:37;;;;;;;22.42;12.13;;;;;;;16.82;100.00;95898.19;1011703;29;20039;-72
2021/07/23 01:16:07;;;;;;;20.08;11.75;;;;;;;16.82;100.00;95908.78;1015780;29;20039;-72
2021/07/23 01:16:38;;;;;;;18.63;12.00;;;;;;;16.81;100.00;95901.94;1023241;29;20122;-73
2021/07/23 01:17:08;;;;;;;24.83;12.13;;;;;;;16.76;100.00;95896.72;1023290;28;20043;-73
2021/07/23 01:17:39;;;;;;;20.55;11.32;;;;;;;16.82;100.00;95903.50;1019472;29;20035;-72
2021/07/23 01:18:09;;;;;;;17.92;12.15;;;;;;;16.81;100.00;95913.31;1020321;29;20031;-72
2021/07/23 01:18:41;;;;;;;22.67;11.52;;;;;;;16.82;100.00;95909.56;1023315;29;20501;-72
2021/07/23 01:19:12;;;;;;;19.88;12.20;;;;;;;16.83;100.00;95905.84;1019734;29;20098;-72
2021/07/23 01:19:49;;;;;;;22.48;12.13;;;;;;;16.84;100.00;95907.44;1016177;29;20036;-72
2021/07/23 01:20:24;;;;;;;19.25;11.45;;;;;;;16.83;100.00;95903.19;1015513;29;20038;-72
2021/07/23 01:20:55;;;;;;;16.10;11.00;;;;;;;16.82;100.00;95903.50;1015446;29;20457;-71
2021/07/23 01:21:26;;;;;;;19.15;12.05;;;;;;;16.79;100.00;95893.50;1015613;29;20474;-72
2021/07/23 01:21:56;;;;;;;20.83;11.68;;;;;;;16.83;100.00;95900.53;1022525;28;20022;-72
2021/07/23 01:22:28;;;;;;;18.20;11.20;;;;;;;16.80;100.00;95895.84;1019568;29;20130;-73
2021/07/23 01:22:59;;;;;;;18.73;11.00;;;;;;;16.85;100.00;95900.25;1019557;29;20028;-72
2021/07/23 01:23:30;;;;;;;24.10;11.55;;;;;;;16.84;100.00;95902.13;1019981;28;20055;-73
2021/07/23 01:24:01;;;;;;;19.48;10.82;;;;;;;16.85;100.00;95910.84;1020276;28;20772;-72
2021/07/23 01:24:31;;;;;;;16.77;10.70;;;;;;;16.86;100.00;95909.75;1027629;28;20043;-72
2021/07/23 01:25:02;;;;;;;20.00;11.98;;;;;;;16.86;100.00;95899.94;1023647;28;20023;-72
2021/07/23 01:25:36;;;;;;;18.88;11.43;;;;;;;16.84;100.00;95902.13;1023223;28;20027;-72
2021/07/23 01:26:06;;;;;;;16.05;11.32;;;;;;;16.85;100.00;95902.91;1023350;29;20576;-72
2021/07/23 01:26:37;;;;;;;22.73;11.55;;;;;;;16.83;100.00;95895.22;1023378;29;20020;-72
2021/07/23 01:27:07;;;;;;;19.05;11.27;;;;;;;16.79;100.00;95896.13;1020739;29;20038;-73
2021/07/23 01:27:43;;;;;;;18.75;11.90;;;;;;;16.83;100.00;95899.75;1023547;29;20023;-72
2021/07/23 01:28:13;;;;;;;15.75;11.10;;;;;;;16.81;100.00;95891.34;1019454;29;20024;-72
2021/07/23 01:28:46;;;;;;;16.58;11.25;;;;;;;16.82;100.00;95895.53;1019292;29;20763;-72
2021/07/23 01:29:20;;;;;;;17.92;11.23;;;;;;;16.84;100.00;95904.00;1011720;29;20108;-72
2021/07/23 01:29:50;;;;;;;15.35;10.82;;;;;;;16.82;100.00;95901.63;1012129;29;20134;-72
2021/07/23 01:30:21;;;;;;;17.98;11.23;;;;;;;16.79;100.00;95899.56;1016392;29;20069;-72
2021/07/23 01:30:52;;;;;;;17.27;11.07;;;;;;;16.80;100.00;95901.16;1016064;29;20139;-72
2021/07/23 01:31:22;;;;;;;20.35;10.95;;;;;;;16.80;100.00;95901.16;1019497;29;20043;-72
2021/07/23 01:31:53;;;;;;;23.50;11.95;;;;;;;16.80;100.00;95895.06;1022641;28;20023;-72
2021/07/23 01:32:23;;;;;;;17.17;11.02;;;;;;;16.81;100.00;95896.63;1019334;29;20068;-72
2021/07/23 01:32:53;;;;;;;16.65;11.52;;;;;;;16.83;100.00;95905.06;1023640;29;20035;-72
2021/07/23 01:33:33;;;;;;;18.23;11.00;;;;;;;16.79;100.00;95906.75;1023424;28;20032;-72
2021/07/23 01:34:03;;;;;;;17.13;10.73;;;;;;;16.78;100.00;95907.84;1020189;29;20027;-72
2021/07/23 01:34:34;;;;;;;18.73;11.48;;;;;;;16.77;100.00;95908.88;1020580;29;20490;-73
2021/07/23 01:35:06;;;;;;;18.02;10.90;;;;;;;16.75;100.00;95903.91;1019400;29;20063;-72
2021/07/23 01:35:37;;;;;;;18.65;11.77;;;;;;;16.76;100.00;95897.50;1019412;29;20390;-72
2021/07/23 01:36:07;;;;;;;19.30;11.50;;;;;;;16.69;100.00;95897.88;1023720;28;20028;-72
2021/07/23 01:36:38;;;;;;;19.77;11.00;;;;;;;16.70;100.00;95891.53;1023243;29;20026;-72
2021/07/23 01:37:08;;;;;;;16.33;10.60;;;;;;;16.75;100.00;95903.91;1019031;28;20490;-72
2021/07/23 01:37:39;;;;;;;17.90;11.82;;;;;;;16.75;100.00;95895.19;1027067;28;20751;-72
2021/07/23 01:38:10;;;;;;;18.67;12.20;;;;;;;16.73;100.00;95900.72;1027946;28;20030;-73
2021/07/23 01:38:40;;;;;;;19.15;11.20;;;;;;;16.68;100.00;95892.91;1031495;28;20527;-72
2021/07/23 01:39:11;;;;;;;19.48;11.18;;;;;;;16.70;100.00;95899.47;1026962;28;20028;-72
2021/07/23 01:39:42;;;;;;;19.52;11.90;;;;;;;16.69;100.00;95897.88;1027591;28;20030;-72
2021/07/23 01:40:17;;;;;;;21.52;11.95;;;;;;;16.65;100.00;95888.19;1019537;29;20039;-72
2021/07/23 01:40:48;;;;;;;19.02;12.15;;;;;;;16.70;100.00;95891.53;1023112;28;20031;-72
2021/07/23 01:41:18;;;;;;;20.70;11.43;;;;;;;16.69;100.00;95895.22;1023437;29;20031;-72
2021/07/23 01:41:49;;;;;;;16.65;10.75;;;;;;;16.68;100.00;95893.69;1018917;29;20031;-72
2021/07/23 01:42:19;;;;;;;18.23;11.55;;;;;;;16.62;100.00;95883.47;1015142;29;20035;-72
2021/07/23 01:42:50;;;;;;;21.98;13.02;;;;;;;16.67;100.00;95892.13;1011578;29;20056;-71
2021/07/23 01:43:21;;;;;;;16.55;10.75;;;;;;;16.68;100.00;95891.03;1015474;29;20024;-73
2021/07/23 01:43:51;;;;;;;18.10;11.20;;;;;;;16.66;100.00;95895.81;1011185;29;20028;-72
2021/07/23 01:44:22;;;;;;;17.10;11.18;;;;;;;16.64;100.00;95892.72;1011667;29;20040;-73
2021/07/23 01:44:52;;;;;;;19.10;11.43;;;;;;;16.65;100.00;95896.91;1013853;29;20036;-73
2021/07/23 01:45:23;;;;;;;18.65;11.52;;;;;;;16.65;100.00;95896.13;1020898;28;20042;-71
2021/07/23 01:45:53;;;;;;;17.08;11.60;;;;;;;16.63;100.00;95891.16;1024509;28;20117;-72
2021/07/23 01:46:24;;;;;;;23.80;12.02;;;;;;;16.64;100.00;95892.72;1015555;29;20032;-72
2021/07/23 01:46:54;;;;;;;16.85;11.05;;;;;;;16.64;100.00;95892.72;1019056;29;20031;-70
2021/07/23 01:47:24;;;;;;;16.05;11.20;;;;;;;16.60;100.00;95891.75;1019122;29;20039;-73
2021/07/23 01:47:55;;;;;;;18.80;11.88;;;;;;;16.60;100.00;95893.59;1023015;29;20035;-72
2021/07/23 01:48:25;;;;;;;16.48;10.93;;;;;;;16.59;100.00;95895.44;1023299;28;20043;-71
2021/07/23 01:48:56;;;;;;;21.20;12.10;;;;;;;16.53;100.00;95886.03;1030786;28;20022;-72
2021/07/23 01:49:26;;;;;;;18.58;11.68;;;;;;;16.55;100.00;95894.47;1027613;28;20031;-72
2021/07/23 01:49:57;;;;;;;17.25;11.88;;;;;;;16.55;100.00;95893.69;1027055;28;20031;-72
2021/07/23 01:50:27;;;;;;;20.02;11.88;;;;;;;16.53;100.00;95896.63;1027364;28;20059;-73
2021/07/23 01:50:57;;;;;;;20.75;11.65;;;;;;;16.45;100.00;95890.16;1026838;28;20030;-72
2021/07/23 01:51:28;;;;;;;18.23;11.57;;;;;;;16.48;100.00;95889.59;1023321;28;20035;-72
2021/07/23 01:51:58;;;;;;;16.42;11.73;;;;;;;16.48;100.00;95896.75;1021396;29;20031;-73
2021/07/23 01:52:29;;;;;;;21.67;11.98;;;;;;;16.46;100.00;95896.25;1022581;29;20027;-73
2021/07/23 01:53:00;;;;;;;16.45;11.52;;;;;;;16.45;100.00;95889.38;1023377;28;20038;-72
2021/07/23 01:53:30;;;;;;;17.95;11.23;;;;;;;16.44;100.00;95893.91;1023480;28;20039;-71
2021/07/23 01:54:00;;;;;;;18.48;11.63;;;;;;;16.46;100.00;95890.94;1022794;28;20035;-71
2021/07/23 01:54:31;;;;;;;18.75;11.98;;;;;;;16.45;100.00;95895.47;1023235;29;20083;-72
2021/07/23 01:55:02;;;;;;;15.88;11.85;;;;;;;16.45;100.00;95898.13;1023429;28;20308;-72
2021/07/23 01:55:32;;;;;;;16.20;11.25;;;;;;;16.46;100.00;95897.06;1026830;28;20030;-71
2021/07/23 01:56:02;;;;;;;19.95;12.18;;;;;;;16.44;100.00;95899.22;1019103;29;20035;-72
2021/07/23 01:56:33;;;;;;;18.58;11.77;;;;;;;16.43;100.00;95895.00;1015354;29;20517;-72
2021/07/23 01:57:04;;;;;;;17.80;12.05;;;;;;;16.43;100.00;95895.00;1015361;29;20067;-73
2021/07/23 01:57:35;;;;;;;19.33;12.18;;;;;;;16.38;100.00;95889.00;1018940;28;20046;-72
2021/07/23 01:58:05;;;;;;;17.00;11.68;;;;;;;16.43;100.00;95896.84;1019049;29;20043;-72
2021/07/23 01:58:35;;;;;;;16.33;11.93;;;;;;;16.37;100.00;95887.44;1015236;29;20040;-72
2021/07/23 01:59:06;;;;;;;17.30;12.02;;;;;;;16.40;100.00;95892.16;1019165;29;20036;-72
2021/07/23 01:59:36;;;;;;;19.50;11.50;;;;;;;16.34;100.00;95883.53;1023147;29;20102;-72
2021/07/23 02:00:07;;;;;;;18.67;11.43;;;;;;;16.41;100.00;95891.06;1023200;29;20078;-72
2021/07/23 02:00:38;;;;;;;18.85;12.25;;;;;;;16.40;100.00;95897.44;1019235;29;20367;-72
2021/07/23 02:01:08;;;;;;;19.35;12.02;;;;;;;16.38;100.00;95894.31;1018779;29;20482;-73
2021/07/23 02:01:39;;;;;;;17.05;11.68;;;;;;;16.37;100.00;95893.53;1019550;29;20168;-72
2021/07/23 02:02:09;;;;;;;20.95;12.65;;;;;;;16.36;100.00;95896.44;1026303;28;20041;-72
2021/07/23 02:02:40;;;;;;;17.20;11.77;;;;;;;16.28;100.00;95882.03;1022962;28;20043;-72
2021/07/23 02:03:10;;;;;;;22.77;12.40;;;;;;;16.34;100.00;95890.69;1023346;28;20576;-72
2021/07/23 02:03:40;;;;;;;20.10;11.63;;;;;;;16.33;100.00;95891.75;1025474;28;20038;-71
2021/07/23 02:04:11;;;;;;;25.33;11.52;;;;;;;16.33;100.00;95897.84;1027183;28;20034;-73
2021/07/23 02:04:41;;;;;;;21.92;12.23;;;;;;;16.32;100.00;95896.25;1030884;28;20506;-72
2021/07/23 02:05:12;;;;;;;29.92;12.52;;;;;;;16.31;100.00;95899.22;1027015;28;20625;-72
2021/07/23 02:05:42;;;;;;;25.30;12.10;;;;;;;16.29;100.00;95893.41;1023140;29;20042;-71
2021/07/23 02:06:13;;;;;;;23.15;11.98;;;;;;;16.26;100.00;95892.13;1021253;29;20030;-73
2021/07/23 02:06:43;;;;;;;26.38;13.43;;;;;;;16.29;100.00;95890.78;1023290;28;20059;-72
2021/07/23 02:07:14;;;;;;;21.55;11.88;;;;;;;16.27;100.00;95894.50;1031359;28;20112;-72
2021/07/23 02:07:44;;;;;;;23.00;12.93;;;;;;;16.27;100.00;95894.50;1026415;28;20034;-71
2021/07/23 02:08:15;;;;;;;23.15;11.90;;;;;;;16.25;100.00;95894.00;1018991;29;20020;-72
2021/07/23 02:08:46;;;;;;;20.67;12.02;;;;;;;16.20;100.00;95888.81;1019056;29;20046;-72
2021/07/23 02:09:16;;;;;;;24.38;13.07;;;;;;;16.18;100.00;95884.91;1019270;29;20020;-72
2021/07/23 02:09:47;;;;;;;21.58;12.23;;;;;;;16.23;100.00;95896.19;1019040;28;20461;-73
2021/07/23 02:10:17;;;;;;;18.58;11.35;;;;;;;16.21;100.00;95890.38;1026908;28;20102;-72
2021/07/23 02:10:48;;;;;;;21.50;11.95;;;;;;;16.20;100.00;95894.13;1027261;28;20034;-72
2021/07/23 02:11:18;;;;;;;20.88;11.65;;;;;;;16.18;100.00;95890.19;1031245;28;20400;-72
2021/07/23 02:11:49;;;;;;;21.90;11.20;;;;;;;16.15;100.00;95888.91;1034633;28;20025;-72
2021/07/23 02:12:19;;;;;;;17.88;11.60;;;;;;;16.17;100.00;95894.69;1027220;28;20023;-72
2021/07/23 02:12:49;;;;;;;22.27;11.18;;;;;;;16.16;100.00;95887.03;1026370;28;20038;-72
2021/07/23 02:13:20;;;;;;;19.98;12.00;;;;;;;16.12;100.00;95892.13;1023169;29;20843;-72
2021/07/23 02:13:50;;;;;;;18.42;12.40;;;;;;;16.09;100.00;95886.66;1023263;28;20516;-72
2021/07/23 02:14:21;;;;;;;20.08;12.10;;;;;;;16.12;100.00;95894.78;1011234;29;20080;-73
2021/07/23 02:14:52;;;;;;;17.90;11.93;;;;;;;16.08;100.00;95890.38;1018999;29;20035;-72
2021/07/23 02:15:22;;;;;;;22.55;11.32;;;;;;;16.00;100.00;95879.41;1019466;29;20028;-72
2021/07/23 02:15:53;;;;;;;16.80;11.88;;;;;;;16.06;100.00;95888.00;1020285;28;20078;-72
2021/07/23 02:16:24;;;;;;;15.93;11.52;;;;;;;16.00;100.00;95879.41;1021478;29;20036;-72
2021/07/23 02:16:55;;;;;;;20.20;11.00;;;;;;;16.03;100.00;95894.69;1022920;29;20078;-72
2021/07/23 02:17:26;;;;;;;16.55;11.43;;;;;;;16.00;100.00;95890.00;1018859;29;20378;-72
2021/07/23 02:17:56;;;;;;;18.70;11.90;;;;;;;15.97;100.00;95884.50;1019174;29;20023;-72
2021/07/23 02:18:26;;;;;;;18.83;11.07;;;;;;;15.96;100.00;95890.84;1019655;28;20032;-72
2021/07/23 02:18:57;;;;;;;16.20;11.88;;;;;;;15.96;100.00;95886.38;1026950;28;20501;-71
2021/07/23 02:19:27;;;;;;;17.65;11.60;;;;;;;15.96;100.00;95882.91;1027103;28;20037;-72
2021/07/23 02:19:58;;;;;;;17.42;12.15;;;;;;;15.95;100.00;95891.94;1026747;28;20037;-72